TOM2XC EGCC-GCTS
Flight info
| Callsign | TOM2XC |
|---|---|
| Flight time | N/A |
| Altitude | 41000 |
| Route | ASMIM DCT NOKIN P17 BEPHE DCT OSSEP DCT ELNIF DCT ZESPE DCT DAWLY DCT BHD DCT ANNET DCT EKVEB DCT KORUL DCT DEMOS DCT IBIDO DCT TUNAV DCT VABEM DCT RULET DCT ORTIS |
| Aircraft | B789/H-SDE1E2E3FGHIJ2J3J4J5M1RWXY/LB1D1 |
Departure
| Time | 2026-05-06 14:34 |
|---|---|
| Airport | Manchester Airport (EGCC) |
Arrival
| Time | N/A |
|---|---|
| Airport | Tenerife Sur Airport (GCTS) |
| Time | Latitude | Longitude | Altitude | Speed | Heading |
|---|---|---|---|---|---|
| 2026-05-06 13:49 | 53.36758 | -2.28760 | 260 ft | 0 kts | 315° |
| 2026-05-06 13:50 | 53.36760 | -2.28764 | 260 ft | 0 kts | 315° |
| 2026-05-06 14:22 | 53.36760 | -2.28763 | 260 ft | 1 kts | 315° |
| 2026-05-06 14:22 | 53.36743 | -2.28734 | 260 ft | 4 kts | 315° |
| 2026-05-06 14:22 | 53.36726 | -2.28706 | 260 ft | 3 kts | 315° |
| 2026-05-06 14:23 | 53.36712 | -2.28675 | 260 ft | 5 kts | 281° |
| 2026-05-06 14:23 | 53.36716 | -2.28639 | 260 ft | 5 kts | 224° |
| 2026-05-06 14:23 | 53.36709 | -2.28652 | 260 ft | 4 kts | 224° |
| 2026-05-06 14:23 | 53.36689 | -2.28684 | 260 ft | 4 kts | 224° |
| 2026-05-06 14:24 | 53.36670 | -2.28715 | 260 ft | 4 kts | 224° |
| 2026-05-06 14:24 | 53.36655 | -2.28741 | 260 ft | 0 kts | 224° |
| 2026-05-06 14:28 | 53.36654 | -2.28742 | 260 ft | 2 kts | 224° |
| 2026-05-06 14:28 | 53.36610 | -2.28777 | 260 ft | 11 kts | 177° |
| 2026-05-06 14:29 | 53.36522 | -2.28660 | 260 ft | 22 kts | 135° |
| 2026-05-06 14:29 | 53.36399 | -2.28493 | 260 ft | 16 kts | 163° |
| 2026-05-06 14:29 | 53.36308 | -2.28406 | 260 ft | 15 kts | 137° |
| 2026-05-06 14:29 | 53.36233 | -2.28282 | 261 ft | 15 kts | 135° |
| 2026-05-06 14:30 | 53.36158 | -2.28156 | 261 ft | 15 kts | 135° |
| 2026-05-06 14:30 | 53.36080 | -2.28033 | 261 ft | 15 kts | 139° |
| 2026-05-06 14:30 | 53.36000 | -2.27913 | 261 ft | 16 kts | 139° |
| 2026-05-06 14:30 | 53.35902 | -2.27854 | 261 ft | 15 kts | 176° |
| 2026-05-06 14:31 | 53.35786 | -2.27868 | 255 ft | 19 kts | 185° |
| 2026-05-06 14:31 | 53.35644 | -2.27893 | 247 ft | 22 kts | 186° |
| 2026-05-06 14:31 | 53.35481 | -2.27927 | 245 ft | 23 kts | 195° |
| 2026-05-06 14:31 | 53.35356 | -2.28087 | 242 ft | 23 kts | 223° |
| 2026-05-06 14:32 | 53.35241 | -2.28282 | 237 ft | 24 kts | 230° |
| 2026-05-06 14:32 | 53.35132 | -2.28508 | 232 ft | 26 kts | 231° |
| 2026-05-06 14:32 | 53.35022 | -2.28727 | 233 ft | 24 kts | 227° |
| 2026-05-06 14:32 | 53.34913 | -2.28920 | 230 ft | 25 kts | 226° |
| 2026-05-06 14:33 | 53.34788 | -2.29086 | 224 ft | 8 kts | 173° |
| 2026-05-06 14:33 | 53.34705 | -2.29035 | 223 ft | 19 kts | 148° |
| 2026-05-06 14:33 | 53.34696 | -2.28905 | 226 ft | 13 kts | 52° |
| 2026-05-06 14:33 | 53.34780 | -2.28727 | 232 ft | 34 kts | 51° |
| 2026-05-06 14:34 | 53.35119 | -2.28028 | 239 ft | 120 kts | 51° |
| 2026-05-06 14:34 | 53.35766 | -2.26684 | 471 ft | 167 kts | 54° |
| 2026-05-06 14:34 | 53.36591 | -2.25024 | 913 ft | 200 kts | 49° |
| 2026-05-06 14:34 | 53.37568 | -2.23212 | 1868 ft | 223 kts | 50° |
| 2026-05-06 14:35 | 53.38693 | -2.21047 | 2392 ft | 274 kts | 37° |
| 2026-05-06 14:35 | 53.40595 | -2.19893 | 2944 ft | 320 kts | 4° |
| 2026-05-06 14:35 | 53.42924 | -2.20506 | 3505 ft | 362 kts | 339° |
| 2026-05-06 14:35 | 53.45201 | -2.22658 | 4050 ft | 386 kts | 322° |
| 2026-05-06 14:36 | 53.46945 | -2.25848 | 4550 ft | 363 kts | 302° |
| 2026-05-06 14:36 | 53.47883 | -2.29824 | 5048 ft | 372 kts | 282° |
| 2026-05-06 14:36 | 53.47953 | -2.34126 | 5527 ft | 371 kts | 263° |
| 2026-05-06 14:36 | 53.47406 | -2.38379 | 6031 ft | 375 kts | 255° |
| 2026-05-06 14:37 | 53.46704 | -2.42600 | 6541 ft | 378 kts | 254° |
| 2026-05-06 14:37 | 53.46106 | -2.46911 | 7035 ft | 381 kts | 259° |
| 2026-05-06 14:37 | 53.45768 | -2.51338 | 7524 ft | 384 kts | 264° |
| 2026-05-06 14:37 | 53.45490 | -2.55815 | 8014 ft | 387 kts | 263° |
| 2026-05-06 14:38 | 53.44907 | -2.60232 | 8466 ft | 391 kts | 249° |
| 2026-05-06 14:38 | 53.43547 | -2.64157 | 8912 ft | 393 kts | 231° |
| 2026-05-06 14:38 | 53.41521 | -2.67235 | 9361 ft | 396 kts | 214° |
| 2026-05-06 14:38 | 53.39038 | -2.69241 | 9828 ft | 398 kts | 201° |
| 2026-05-06 14:39 | 53.36398 | -2.70699 | 10316 ft | 402 kts | 197° |
| 2026-05-06 14:39 | 53.33704 | -2.72054 | 10802 ft | 405 kts | 197° |
| 2026-05-06 14:39 | 53.31037 | -2.73652 | 11285 ft | 409 kts | 201° |
| 2026-05-06 14:39 | 53.28399 | -2.75448 | 11764 ft | 412 kts | 202° |
| 2026-05-06 14:40 | 53.25712 | -2.77177 | 12245 ft | 416 kts | 200° |
| 2026-05-06 14:40 | 53.22977 | -2.78812 | 12724 ft | 419 kts | 200° |
| 2026-05-06 14:40 | 53.20266 | -2.80457 | 13197 ft | 423 kts | 200° |
| 2026-05-06 14:40 | 53.17503 | -2.82195 | 13674 ft | 426 kts | 201° |
| 2026-05-06 14:41 | 53.14723 | -2.83942 | 14152 ft | 430 kts | 200° |
| 2026-05-06 14:41 | 53.11906 | -2.85675 | 14630 ft | 433 kts | 200° |
| 2026-05-06 14:41 | 53.09037 | -2.87236 | 15090 ft | 437 kts | 193° |
| 2026-05-06 14:41 | 53.05998 | -2.87726 | 15542 ft | 441 kts | 179° |
| 2026-05-06 14:42 | 53.02948 | -2.87134 | 16010 ft | 443 kts | 171° |
| 2026-05-06 14:42 | 52.99900 | -2.86202 | 16490 ft | 447 kts | 169° |
| 2026-05-06 14:42 | 52.96837 | -2.85277 | 16970 ft | 449 kts | 171° |
| 2026-05-06 14:42 | 52.93747 | -2.84480 | 17448 ft | 450 kts | 172° |
| 2026-05-06 14:43 | 52.90641 | -2.83698 | 17925 ft | 452 kts | 171° |
| 2026-05-06 14:43 | 52.87542 | -2.82849 | 18397 ft | 452 kts | 171° |
| 2026-05-06 14:43 | 52.84441 | -2.81980 | 18869 ft | 452 kts | 171° |
| 2026-05-06 14:43 | 52.81332 | -2.81144 | 19340 ft | 452 kts | 171° |
| 2026-05-06 14:44 | 52.78226 | -2.80327 | 19809 ft | 452 kts | 171° |
| 2026-05-06 14:44 | 52.75121 | -2.79496 | 20279 ft | 452 kts | 171° |
| 2026-05-06 14:44 | 52.72020 | -2.78656 | 20747 ft | 451 kts | 171° |
| 2026-05-06 14:45 | 52.65831 | -2.77002 | 21681 ft | 450 kts | 171° |
| 2026-05-06 14:45 | 52.62744 | -2.76183 | 22147 ft | 449 kts | 172° |
| 2026-05-06 14:45 | 52.59635 | -2.75905 | 22616 ft | 447 kts | 183° |
| 2026-05-06 14:45 | 52.56529 | -2.76176 | 23086 ft | 446 kts | 183° |
| 2026-05-06 14:46 | 52.53444 | -2.76458 | 23551 ft | 445 kts | 183° |
| 2026-05-06 14:46 | 52.50342 | -2.76735 | 24018 ft | 444 kts | 183° |
| 2026-05-06 14:46 | 52.47262 | -2.76995 | 24482 ft | 443 kts | 183° |
| 2026-05-06 14:46 | 52.44183 | -2.77257 | 24946 ft | 442 kts | 183° |
| 2026-05-06 14:47 | 52.41118 | -2.77525 | 25409 ft | 441 kts | 183° |
| 2026-05-06 14:47 | 52.38061 | -2.77791 | 25872 ft | 439 kts | 183° |
| 2026-05-06 14:47 | 52.35016 | -2.78053 | 26333 ft | 438 kts | 183° |
| 2026-05-06 14:47 | 52.31974 | -2.78313 | 26795 ft | 437 kts | 183° |
| 2026-05-06 14:48 | 52.28945 | -2.78574 | 27255 ft | 435 kts | 183° |
| 2026-05-06 14:48 | 52.25929 | -2.78833 | 27715 ft | 434 kts | 183° |
| 2026-05-06 14:48 | 52.22922 | -2.79091 | 28175 ft | 432 kts | 183° |
| 2026-05-06 14:48 | 52.19927 | -2.79347 | 28633 ft | 430 kts | 183° |
| 2026-05-06 14:49 | 52.16946 | -2.79602 | 29090 ft | 428 kts | 183° |
| 2026-05-06 14:49 | 52.13981 | -2.79855 | 29546 ft | 426 kts | 183° |
| 2026-05-06 14:49 | 52.11027 | -2.80107 | 30002 ft | 424 kts | 183° |
| 2026-05-06 14:49 | 52.08087 | -2.80357 | 30458 ft | 422 kts | 183° |
| 2026-05-06 14:50 | 52.05166 | -2.80606 | 30911 ft | 420 kts | 183° |
| 2026-05-06 14:50 | 52.02260 | -2.80853 | 31364 ft | 417 kts | 183° |
| 2026-05-06 14:50 | 51.99364 | -2.81098 | 31817 ft | 415 kts | 183° |
| 2026-05-06 14:50 | 51.96485 | -2.81342 | 32269 ft | 413 kts | 183° |
| 2026-05-06 14:51 | 51.93627 | -2.81584 | 32720 ft | 410 kts | 183° |
| 2026-05-06 14:51 | 51.90783 | -2.81824 | 33169 ft | 408 kts | 183° |
| 2026-05-06 14:51 | 51.87961 | -2.82063 | 33617 ft | 405 kts | 183° |
| 2026-05-06 14:51 | 51.85163 | -2.82344 | 34061 ft | 401 kts | 188° |
| 2026-05-06 14:52 | 51.82422 | -2.82996 | 34517 ft | 396 kts | 187° |
| 2026-05-06 14:52 | 51.79690 | -2.83538 | 34962 ft | 393 kts | 187° |
| 2026-05-06 14:52 | 51.76994 | -2.84075 | 35401 ft | 389 kts | 188° |
| 2026-05-06 14:52 | 51.74331 | -2.84659 | 35836 ft | 384 kts | 188° |
| 2026-05-06 14:53 | 51.71698 | -2.85243 | 36267 ft | 380 kts | 188° |
| 2026-05-06 14:53 | 51.69095 | -2.85797 | 36693 ft | 375 kts | 187° |
| 2026-05-06 14:53 | 51.66526 | -2.86335 | 37115 ft | 369 kts | 188° |
| 2026-05-06 14:53 | 51.63998 | -2.86874 | 37530 ft | 364 kts | 188° |
| 2026-05-06 14:54 | 51.61544 | -2.87400 | 37932 ft | 357 kts | 188° |
| 2026-05-06 14:54 | 51.59072 | -2.87927 | 38336 ft | 350 kts | 188° |
| 2026-05-06 14:54 | 51.56717 | -2.88426 | 38718 ft | 342 kts | 188° |
| 2026-05-06 14:54 | 51.54427 | -2.89204 | 39024 ft | 333 kts | 205° |
| 2026-05-06 14:55 | 51.52297 | -2.90579 | 39135 ft | 328 kts | 200° |
| 2026-05-06 14:55 | 51.48036 | -2.93068 | 39108 ft | 327 kts | 201° |
| 2026-05-06 14:55 | 51.45899 | -2.94361 | 38984 ft | 330 kts | 201° |
| 2026-05-06 14:56 | 51.43751 | -2.95663 | 38982 ft | 329 kts | 200° |
| 2026-05-06 14:56 | 51.39502 | -2.98200 | 39066 ft | 325 kts | 200° |
| 2026-05-06 14:56 | 51.37377 | -2.99471 | 38955 ft | 328 kts | 200° |
| 2026-05-06 14:57 | 51.35234 | -3.00754 | 38880 ft | 329 kts | 200° |
| 2026-05-06 14:57 | 51.30977 | -3.03292 | 38989 ft | 324 kts | 200° |
| 2026-05-06 14:58 | 51.26737 | -3.05818 | 38834 ft | 328 kts | 200° |
| 2026-05-06 14:58 | 51.22470 | -3.08353 | 38882 ft | 325 kts | 200° |
| 2026-05-06 14:59 | 51.18245 | -3.10859 | 38825 ft | 326 kts | 200° |
| 2026-05-06 14:59 | 51.14702 | -3.12957 | 38763 ft | 327 kts | 200° |
| 2026-05-06 15:00 | 51.10473 | -3.15456 | 38833 ft | 323 kts | 200° |
| 2026-05-06 15:00 | 51.06230 | -3.17959 | 38705 ft | 327 kts | 200° |
| 2026-05-06 15:01 | 51.01989 | -3.20454 | 38787 ft | 323 kts | 200° |
| 2026-05-06 15:01 | 50.97765 | -3.22936 | 38675 ft | 326 kts | 200° |
| 2026-05-06 15:02 | 50.93521 | -3.25425 | 38715 ft | 323 kts | 200° |
| 2026-05-06 15:02 | 50.89304 | -3.27892 | 38669 ft | 324 kts | 200° |
| 2026-05-06 15:03 | 50.85062 | -3.30370 | 38641 ft | 324 kts | 200° |
| 2026-05-06 15:03 | 50.80847 | -3.32826 | 38668 ft | 323 kts | 200° |
| 2026-05-06 15:04 | 50.76617 | -3.35288 | 38582 ft | 325 kts | 200° |
| 2026-05-06 15:04 | 50.72399 | -3.37737 | 38642 ft | 322 kts | 200° |
| 2026-05-06 15:05 | 50.68178 | -3.40184 | 38548 ft | 324 kts | 200° |
| 2026-05-06 15:05 | 50.63951 | -3.42629 | 38599 ft | 322 kts | 200° |
| 2026-05-06 15:06 | 50.59772 | -3.45042 | 38534 ft | 323 kts | 200° |
| 2026-05-06 15:06 | 50.55369 | -3.46734 | 38204 ft | 333 kts | 184° |
| 2026-05-06 15:07 | 50.50824 | -3.47519 | 38668 ft | 315 kts | 187° |
| 2026-05-06 15:07 | 50.48694 | -3.47887 | 38784 ft | 312 kts | 186° |
| 2026-05-06 15:07 | 50.46471 | -3.48253 | 38407 ft | 325 kts | 186° |
| 2026-05-06 15:07 | 50.44214 | -3.48630 | 38153 ft | 333 kts | 186° |
| 2026-05-06 15:08 | 50.41937 | -3.49017 | 38408 ft | 323 kts | 186° |
| 2026-05-06 15:08 | 50.39756 | -3.49489 | 38680 ft | 313 kts | 199° |
| 2026-05-06 15:08 | 50.37699 | -3.50822 | 38148 ft | 331 kts | 205° |
| 2026-05-06 15:08 | 50.35571 | -3.52341 | 37964 ft | 336 kts | 204° |
| 2026-05-06 15:09 | 50.33487 | -3.53780 | 38501 ft | 317 kts | 204° |
| 2026-05-06 15:09 | 50.31508 | -3.55127 | 38858 ft | 306 kts | 204° |
| 2026-05-06 15:09 | 50.29530 | -3.56486 | 38510 ft | 318 kts | 204° |
| 2026-05-06 15:09 | 50.27444 | -3.57925 | 38033 ft | 335 kts | 204° |
| 2026-05-06 15:10 | 50.25320 | -3.59386 | 38199 ft | 328 kts | 204° |
| 2026-05-06 15:10 | 50.23292 | -3.60776 | 38697 ft | 310 kts | 204° |
| 2026-05-06 15:10 | 50.21326 | -3.62123 | 38709 ft | 311 kts | 204° |
| 2026-05-06 15:10 | 50.19297 | -3.63513 | 38233 ft | 327 kts | 204° |
| 2026-05-06 15:11 | 50.17183 | -3.64960 | 38046 ft | 333 kts | 204° |
| 2026-05-06 15:11 | 50.15101 | -3.66384 | 38428 ft | 319 kts | 204° |
| 2026-05-06 15:11 | 50.13110 | -3.67743 | 38725 ft | 309 kts | 204° |
| 2026-05-06 15:11 | 50.11122 | -3.69100 | 38467 ft | 318 kts | 204° |
| 2026-05-06 15:12 | 50.09045 | -3.70516 | 38090 ft | 331 kts | 204° |
| 2026-05-06 15:12 | 50.04825 | -3.73389 | 38214 ft | 333 kts | 204° |
| 2026-05-06 15:12 | 50.02666 | -3.74857 | 38040 ft | 344 kts | 204° |
| 2026-05-06 15:13 | 50.00460 | -3.76355 | 38072 ft | 348 kts | 204° |
| 2026-05-06 15:13 | 49.95941 | -3.79420 | 38041 ft | 360 kts | 204° |
| 2026-05-06 15:14 | 49.91267 | -3.82582 | 38034 ft | 373 kts | 204° |
| 2026-05-06 15:14 | 49.86439 | -3.85843 | 38029 ft | 385 kts | 204° |
| 2026-05-06 15:15 | 49.81446 | -3.89207 | 38025 ft | 397 kts | 204° |
| 2026-05-06 15:15 | 49.76307 | -3.92661 | 38022 ft | 408 kts | 204° |
| 2026-05-06 15:16 | 49.71061 | -3.96178 | 38019 ft | 419 kts | 204° |
| 2026-05-06 15:16 | 49.65649 | -3.99799 | 38017 ft | 429 kts | 203° |
| 2026-05-06 15:17 | 49.60063 | -4.03387 | 38015 ft | 439 kts | 202° |
| 2026-05-06 15:17 | 49.54347 | -4.06987 | 38013 ft | 449 kts | 202° |
| 2026-05-06 15:18 | 49.48524 | -4.10695 | 38012 ft | 457 kts | 202° |
| 2026-05-06 15:18 | 49.42580 | -4.14437 | 38017 ft | 465 kts | 202° |
| 2026-05-06 15:19 | 49.36549 | -4.18244 | 38015 ft | 472 kts | 202° |
| 2026-05-06 15:19 | 49.30429 | -4.22084 | 38007 ft | 479 kts | 202° |
| 2026-05-06 15:20 | 49.24225 | -4.25974 | 38014 ft | 484 kts | 202° |
| 2026-05-06 15:20 | 49.17951 | -4.29893 | 38013 ft | 490 kts | 202° |
| 2026-05-06 15:21 | 49.11606 | -4.33848 | 38007 ft | 495 kts | 202° |
| 2026-05-06 15:21 | 49.05202 | -4.37827 | 38012 ft | 499 kts | 202° |
| 2026-05-06 15:22 | 48.98752 | -4.41824 | 38012 ft | 502 kts | 202° |
| 2026-05-06 15:22 | 48.92252 | -4.45840 | 38007 ft | 506 kts | 202° |
| 2026-05-06 15:23 | 48.85708 | -4.49872 | 38011 ft | 509 kts | 202° |
| 2026-05-06 15:23 | 48.79132 | -4.53913 | 38012 ft | 511 kts | 202° |
| 2026-05-06 15:24 | 48.72520 | -4.57964 | 38011 ft | 514 kts | 202° |
| 2026-05-06 15:24 | 48.65923 | -4.61995 | 38008 ft | 516 kts | 202° |
| 2026-05-06 15:25 | 48.59248 | -4.66061 | 38008 ft | 518 kts | 202° |
| 2026-05-06 15:25 | 48.52545 | -4.70133 | 38008 ft | 520 kts | 202° |
| 2026-05-06 15:26 | 48.45818 | -4.74208 | 38010 ft | 521 kts | 202° |
| 2026-05-06 15:26 | 48.39085 | -4.78275 | 38010 ft | 522 kts | 202° |
| 2026-05-06 15:27 | 48.32349 | -4.82331 | 38010 ft | 522 kts | 202° |
| 2026-05-06 15:27 | 48.25605 | -4.86382 | 38011 ft | 522 kts | 202° |
| 2026-05-06 15:28 | 48.18865 | -4.90418 | 38009 ft | 522 kts | 202° |
| 2026-05-06 15:28 | 48.12128 | -4.94441 | 38010 ft | 521 kts | 202° |
| 2026-05-06 15:29 | 48.05387 | -4.98455 | 38009 ft | 521 kts | 202° |
| 2026-05-06 15:29 | 47.98655 | -5.02452 | 38009 ft | 521 kts | 202° |
| 2026-05-06 15:30 | 47.91923 | -5.06439 | 38009 ft | 520 kts | 201° |
| 2026-05-06 15:30 | 47.85190 | -5.10414 | 38008 ft | 520 kts | 201° |
| 2026-05-06 15:31 | 47.78462 | -5.14376 | 38008 ft | 520 kts | 201° |
| 2026-05-06 15:31 | 47.71736 | -5.18325 | 38008 ft | 520 kts | 201° |
| 2026-05-06 15:32 | 47.61621 | -5.24244 | 38010 ft | 521 kts | 201° |
| 2026-05-06 15:32 | 47.54925 | -5.28148 | 38011 ft | 521 kts | 201° |
| 2026-05-06 15:33 | 47.48168 | -5.32077 | 38010 ft | 522 kts | 201° |
| 2026-05-06 15:33 | 47.41409 | -5.35997 | 38011 ft | 522 kts | 201° |
| 2026-05-06 15:34 | 47.34651 | -5.39905 | 38012 ft | 522 kts | 201° |
| 2026-05-06 15:34 | 47.27890 | -5.43804 | 38009 ft | 521 kts | 201° |
| 2026-05-06 15:35 | 47.21137 | -5.47688 | 38009 ft | 521 kts | 201° |
| 2026-05-06 15:35 | 47.14382 | -5.51562 | 38009 ft | 521 kts | 201° |
| 2026-05-06 15:36 | 47.07632 | -5.55423 | 38008 ft | 521 kts | 201° |
| 2026-05-06 15:36 | 47.00880 | -5.59274 | 38007 ft | 520 kts | 201° |
| 2026-05-06 15:37 | 46.94135 | -5.63111 | 38007 ft | 520 kts | 201° |
| 2026-05-06 15:37 | 46.87391 | -5.66937 | 38007 ft | 520 kts | 201° |
| 2026-05-06 15:38 | 46.80639 | -5.70757 | 38007 ft | 520 kts | 201° |
| 2026-05-06 15:38 | 46.73889 | -5.74566 | 38008 ft | 520 kts | 201° |
| 2026-05-06 15:39 | 46.67135 | -5.78367 | 38008 ft | 520 kts | 201° |
| 2026-05-06 15:39 | 46.60394 | -5.82165 | 38009 ft | 520 kts | 204° |
| 2026-05-06 15:40 | 46.53775 | -5.86422 | 38007 ft | 520 kts | 203° |
| 2026-05-06 15:40 | 46.47141 | -5.90644 | 38010 ft | 521 kts | 204° |
| 2026-05-06 15:41 | 46.40510 | -5.94899 | 38008 ft | 521 kts | 204° |
| 2026-05-06 15:41 | 46.33869 | -5.99114 | 38011 ft | 521 kts | 204° |
| 2026-05-06 15:42 | 46.27232 | -6.03340 | 38012 ft | 521 kts | 204° |
| 2026-05-06 15:42 | 46.20593 | -6.07540 | 38009 ft | 521 kts | 204° |
| 2026-05-06 15:43 | 46.13997 | -6.11711 | 38009 ft | 520 kts | 204° |
| 2026-05-06 15:43 | 46.07318 | -6.15918 | 38008 ft | 520 kts | 204° |
| 2026-05-06 15:44 | 46.00737 | -6.20055 | 38008 ft | 520 kts | 204° |
| 2026-05-06 15:44 | 45.94095 | -6.24218 | 38008 ft | 520 kts | 204° |
| 2026-05-06 15:45 | 45.87458 | -6.28368 | 38009 ft | 520 kts | 204° |
| 2026-05-06 15:45 | 45.80823 | -6.32506 | 38009 ft | 520 kts | 204° |
| 2026-05-06 15:46 | 45.74180 | -6.36638 | 38009 ft | 520 kts | 204° |
| 2026-05-06 15:46 | 45.67549 | -6.40752 | 38009 ft | 520 kts | 204° |
| 2026-05-06 15:47 | 45.60908 | -6.44861 | 38010 ft | 520 kts | 203° |
| 2026-05-06 15:47 | 45.54259 | -6.48964 | 38010 ft | 520 kts | 203° |
| 2026-05-06 15:48 | 45.47617 | -6.53053 | 38011 ft | 520 kts | 203° |
| 2026-05-06 15:48 | 45.40970 | -6.57134 | 38011 ft | 520 kts | 203° |
| 2026-05-06 15:49 | 45.34323 | -6.61205 | 38012 ft | 520 kts | 203° |
| 2026-05-06 15:49 | 45.27676 | -6.65265 | 38009 ft | 520 kts | 203° |
| 2026-05-06 15:50 | 45.22145 | -6.68636 | 38009 ft | 520 kts | 203° |
| 2026-05-06 15:50 | 45.15494 | -6.72679 | 38009 ft | 520 kts | 203° |
| 2026-05-06 15:51 | 45.07763 | -6.77367 | 38010 ft | 520 kts | 203° |
| 2026-05-06 15:51 | 45.01107 | -6.81391 | 38011 ft | 520 kts | 203° |
| 2026-05-06 15:52 | 44.95534 | -6.84753 | 38011 ft | 520 kts | 203° |
| 2026-05-06 15:52 | 44.88875 | -6.88761 | 38012 ft | 520 kts | 203° |
| 2026-05-06 15:53 | 44.82315 | -6.93053 | 38030 ft | 519 kts | 212° |
| 2026-05-06 15:53 | 44.76190 | -6.98478 | 38007 ft | 521 kts | 212° |
| 2026-05-06 15:54 | 44.70061 | -7.03918 | 38010 ft | 521 kts | 212° |
| 2026-05-06 15:54 | 44.63924 | -7.09327 | 38010 ft | 521 kts | 212° |
| 2026-05-06 15:55 | 44.57789 | -7.14738 | 38008 ft | 521 kts | 212° |
| 2026-05-06 15:55 | 44.51648 | -7.20128 | 38009 ft | 520 kts | 212° |
| 2026-05-06 15:56 | 44.45515 | -7.25507 | 38009 ft | 520 kts | 212° |
| 2026-05-06 15:56 | 44.39379 | -7.30869 | 38010 ft | 520 kts | 212° |
| 2026-05-06 15:57 | 44.33244 | -7.36220 | 38010 ft | 520 kts | 212° |
| 2026-05-06 15:57 | 44.27142 | -7.41527 | 38010 ft | 520 kts | 212° |
| 2026-05-06 15:58 | 44.21002 | -7.46855 | 38011 ft | 520 kts | 212° |
| 2026-05-06 15:58 | 44.14856 | -7.52174 | 38011 ft | 520 kts | 212° |
| 2026-05-06 15:59 | 44.08705 | -7.57485 | 38012 ft | 520 kts | 212° |
| 2026-05-06 15:59 | 44.02551 | -7.62784 | 38009 ft | 520 kts | 212° |
| 2026-05-06 16:00 | 43.96394 | -7.68075 | 38010 ft | 520 kts | 212° |
| 2026-05-06 16:00 | 43.90239 | -7.73349 | 38010 ft | 520 kts | 212° |
| 2026-05-06 16:01 | 43.84080 | -7.78615 | 38010 ft | 520 kts | 212° |
| 2026-05-06 16:01 | 43.77922 | -7.83866 | 38011 ft | 520 kts | 212° |
| 2026-05-06 16:02 | 43.71759 | -7.89109 | 38011 ft | 520 kts | 212° |
| 2026-05-06 16:02 | 43.65584 | -7.94348 | 38008 ft | 520 kts | 211° |
| 2026-05-06 16:03 | 43.59417 | -7.99569 | 38008 ft | 520 kts | 211° |
| 2026-05-06 16:03 | 43.53248 | -8.04779 | 38011 ft | 520 kts | 211° |
| 2026-05-06 16:04 | 43.47070 | -8.09984 | 38011 ft | 521 kts | 211° |
| 2026-05-06 16:04 | 43.40922 | -8.15151 | 38012 ft | 522 kts | 211° |
| 2026-05-06 16:05 | 43.34708 | -8.20360 | 38009 ft | 524 kts | 211° |
| 2026-05-06 16:05 | 43.28472 | -8.25575 | 38013 ft | 526 kts | 211° |
| 2026-05-06 16:06 | 43.22202 | -8.30807 | 38008 ft | 528 kts | 211° |
| 2026-05-06 16:06 | 43.15923 | -8.36033 | 38011 ft | 529 kts | 211° |
| 2026-05-06 16:07 | 43.09623 | -8.41263 | 38007 ft | 531 kts | 211° |
| 2026-05-06 16:07 | 43.03295 | -8.46504 | 38009 ft | 532 kts | 211° |
| 2026-05-06 16:08 | 42.96951 | -8.51745 | 38011 ft | 533 kts | 211° |
| 2026-05-06 16:08 | 42.90596 | -8.56984 | 38011 ft | 534 kts | 211° |
| 2026-05-06 16:09 | 42.84228 | -8.62218 | 38011 ft | 535 kts | 211° |
| 2026-05-06 16:09 | 42.77843 | -8.67456 | 38010 ft | 536 kts | 211° |
| 2026-05-06 16:10 | 42.71455 | -8.72682 | 38009 ft | 536 kts | 211° |
| 2026-05-06 16:10 | 42.65053 | -8.77907 | 38011 ft | 537 kts | 211° |
| 2026-05-06 16:11 | 42.58641 | -8.83128 | 38010 ft | 537 kts | 211° |
| 2026-05-06 16:11 | 42.52227 | -8.88338 | 38012 ft | 537 kts | 211° |
| 2026-05-06 16:12 | 42.45812 | -8.93536 | 38010 ft | 538 kts | 211° |
| 2026-05-06 16:12 | 42.39384 | -8.98732 | 38009 ft | 538 kts | 211° |
| 2026-05-06 16:13 | 42.32956 | -9.03915 | 38010 ft | 538 kts | 211° |
| 2026-05-06 16:13 | 42.26560 | -9.09061 | 38012 ft | 539 kts | 211° |
| 2026-05-06 16:14 | 42.20118 | -9.14230 | 38010 ft | 539 kts | 211° |
| 2026-05-06 16:14 | 42.13668 | -9.19394 | 38011 ft | 539 kts | 211° |
| 2026-05-06 16:15 | 42.07213 | -9.24550 | 38009 ft | 540 kts | 211° |
| 2026-05-06 16:15 | 42.00750 | -9.29699 | 38011 ft | 540 kts | 211° |
| 2026-05-06 16:16 | 41.94289 | -9.34834 | 38012 ft | 540 kts | 211° |
| 2026-05-06 16:16 | 41.87828 | -9.40006 | 38010 ft | 541 kts | 211° |
| 2026-05-06 16:17 | 41.81390 | -9.45219 | 38012 ft | 541 kts | 211° |
| 2026-05-06 16:17 | 41.74930 | -9.50387 | 38009 ft | 540 kts | 211° |
| 2026-05-06 16:18 | 41.68482 | -9.55565 | 38010 ft | 540 kts | 211° |
| 2026-05-06 16:18 | 41.62025 | -9.60718 | 38011 ft | 541 kts | 211° |
| 2026-05-06 16:19 | 41.55563 | -9.65875 | 38012 ft | 541 kts | 211° |
| 2026-05-06 16:19 | 41.49100 | -9.71014 | 38012 ft | 541 kts | 211° |
| 2026-05-06 16:20 | 41.42636 | -9.76146 | 38010 ft | 541 kts | 211° |
| 2026-05-06 16:20 | 41.36210 | -9.81233 | 38010 ft | 541 kts | 211° |
| 2026-05-06 16:21 | 41.29740 | -9.86344 | 38011 ft | 541 kts | 211° |
| 2026-05-06 16:21 | 41.23270 | -9.91443 | 38011 ft | 541 kts | 211° |
| 2026-05-06 16:22 | 41.16791 | -9.96538 | 38011 ft | 541 kts | 211° |
| 2026-05-06 16:22 | 41.10313 | -10.01619 | 38012 ft | 541 kts | 211° |
| 2026-05-06 16:23 | 41.03831 | -10.06692 | 38009 ft | 541 kts | 211° |
| 2026-05-06 16:23 | 40.97350 | -10.11753 | 38010 ft | 541 kts | 211° |
| 2026-05-06 16:24 | 40.90867 | -10.16803 | 38010 ft | 541 kts | 210° |
| 2026-05-06 16:24 | 40.84382 | -10.21842 | 38010 ft | 540 kts | 210° |
| 2026-05-06 16:25 | 40.77897 | -10.26866 | 38010 ft | 541 kts | 210° |
| 2026-05-06 16:25 | 40.71405 | -10.31886 | 38011 ft | 541 kts | 210° |
| 2026-05-06 16:26 | 40.64959 | -10.36858 | 38012 ft | 541 kts | 210° |
| 2026-05-06 16:26 | 40.58458 | -10.41861 | 38010 ft | 541 kts | 210° |
| 2026-05-06 16:27 | 40.51954 | -10.46856 | 38010 ft | 541 kts | 210° |
| 2026-05-06 16:27 | 40.45446 | -10.51842 | 38011 ft | 542 kts | 210° |
| 2026-05-06 16:28 | 40.38932 | -10.56822 | 38009 ft | 542 kts | 210° |
| 2026-05-06 16:28 | 40.32412 | -10.61794 | 38010 ft | 542 kts | 210° |
| 2026-05-06 16:29 | 40.25891 | -10.66756 | 38011 ft | 542 kts | 210° |
| 2026-05-06 16:29 | 40.19372 | -10.71706 | 38011 ft | 542 kts | 210° |
| 2026-05-06 16:30 | 40.13957 | -10.75808 | 38012 ft | 542 kts | 210° |
| 2026-05-06 16:30 | 40.06328 | -10.81576 | 38009 ft | 542 kts | 210° |
| 2026-05-06 16:31 | 39.99802 | -10.86498 | 38010 ft | 542 kts | 210° |
| 2026-05-06 16:31 | 39.93273 | -10.91410 | 38010 ft | 541 kts | 210° |
| 2026-05-06 16:32 | 39.86741 | -10.96315 | 38010 ft | 542 kts | 210° |
| 2026-05-06 16:32 | 39.80216 | -11.01203 | 38011 ft | 542 kts | 210° |
| 2026-05-06 16:33 | 39.73682 | -11.06087 | 38011 ft | 541 kts | 210° |
| 2026-05-06 16:34 | 39.63881 | -11.13393 | 38011 ft | 542 kts | 210° |
| 2026-05-06 16:34 | 39.57346 | -11.18251 | 38012 ft | 542 kts | 210° |
| 2026-05-06 16:35 | 39.50807 | -11.23101 | 38009 ft | 541 kts | 210° |
| 2026-05-06 16:35 | 39.44307 | -11.27912 | 38010 ft | 542 kts | 210° |
| 2026-05-06 16:36 | 39.37726 | -11.32772 | 38010 ft | 541 kts | 210° |
| 2026-05-06 16:36 | 39.31229 | -11.37560 | 38010 ft | 540 kts | 210° |
| 2026-05-06 16:37 | 39.24699 | -11.42363 | 38009 ft | 540 kts | 210° |
| 2026-05-06 16:37 | 39.18170 | -11.47155 | 38008 ft | 540 kts | 210° |
| 2026-05-06 16:38 | 39.11644 | -11.51934 | 38008 ft | 539 kts | 210° |
| 2026-05-06 16:38 | 39.05117 | -11.56704 | 38008 ft | 539 kts | 210° |
| 2026-05-06 16:39 | 38.98590 | -11.61464 | 38008 ft | 540 kts | 210° |
| 2026-05-06 16:39 | 38.92055 | -11.66219 | 38009 ft | 540 kts | 210° |
| 2026-05-06 16:40 | 38.85516 | -11.70967 | 38009 ft | 540 kts | 210° |
| 2026-05-06 16:40 | 38.78978 | -11.75705 | 38010 ft | 540 kts | 210° |
| 2026-05-06 16:41 | 38.72433 | -11.80437 | 38011 ft | 540 kts | 209° |
| 2026-05-06 16:41 | 38.65890 | -11.85157 | 38011 ft | 540 kts | 209° |
| 2026-05-06 16:42 | 38.59343 | -11.89871 | 38011 ft | 540 kts | 209° |
| 2026-05-06 16:42 | 38.52843 | -11.94541 | 38012 ft | 540 kts | 209° |
| 2026-05-06 16:43 | 38.46299 | -11.99233 | 38012 ft | 540 kts | 209° |
| 2026-05-06 16:43 | 38.39746 | -12.03921 | 38009 ft | 540 kts | 209° |
| 2026-05-06 16:44 | 38.33197 | -12.08596 | 38010 ft | 540 kts | 209° |
| 2026-05-06 16:44 | 38.27710 | -12.12506 | 38010 ft | 540 kts | 209° |
| 2026-05-06 16:45 | 38.20086 | -12.17927 | 38011 ft | 540 kts | 209° |
| 2026-05-06 16:45 | 38.14631 | -12.21798 | 38012 ft | 540 kts | 209° |
| 2026-05-06 16:46 | 38.08030 | -12.26473 | 38009 ft | 540 kts | 209° |
| 2026-05-06 16:46 | 38.01464 | -12.31114 | 38009 ft | 540 kts | 209° |
| 2026-05-06 16:47 | 37.94947 | -12.35710 | 38010 ft | 540 kts | 209° |
| 2026-05-06 16:47 | 37.88384 | -12.40330 | 38010 ft | 540 kts | 209° |
| 2026-05-06 16:48 | 37.81819 | -12.44942 | 38010 ft | 540 kts | 209° |
| 2026-05-06 16:48 | 37.75250 | -12.49546 | 38011 ft | 540 kts | 209° |
| 2026-05-06 16:49 | 37.68684 | -12.54140 | 38011 ft | 540 kts | 209° |
| 2026-05-06 16:49 | 37.62115 | -12.58726 | 38012 ft | 540 kts | 209° |
| 2026-05-06 16:50 | 37.55538 | -12.63308 | 38009 ft | 540 kts | 209° |
| 2026-05-06 16:50 | 37.48960 | -12.67882 | 38010 ft | 540 kts | 209° |
| 2026-05-06 16:51 | 37.42375 | -12.72451 | 38011 ft | 540 kts | 209° |
| 2026-05-06 16:51 | 37.35796 | -12.77007 | 38011 ft | 540 kts | 209° |
| 2026-05-06 16:52 | 37.29214 | -12.81555 | 38011 ft | 540 kts | 209° |
| 2026-05-06 16:52 | 37.22638 | -12.86091 | 38011 ft | 539 kts | 209° |
| 2026-05-06 16:53 | 37.16055 | -12.90623 | 38011 ft | 539 kts | 209° |
| 2026-05-06 16:53 | 37.09471 | -12.95145 | 38012 ft | 540 kts | 208° |
| 2026-05-06 16:54 | 37.02926 | -12.99632 | 38010 ft | 540 kts | 208° |
| 2026-05-06 16:54 | 36.96333 | -13.04143 | 38011 ft | 540 kts | 208° |
| 2026-05-06 16:55 | 36.89737 | -13.08647 | 38011 ft | 540 kts | 208° |
| 2026-05-06 16:55 | 36.83144 | -13.13140 | 38012 ft | 540 kts | 208° |
| 2026-05-06 16:56 | 36.76545 | -13.17628 | 38008 ft | 540 kts | 208° |
| 2026-05-06 16:56 | 36.69950 | -13.22105 | 38009 ft | 540 kts | 208° |
| 2026-05-06 16:57 | 36.63352 | -13.26575 | 38010 ft | 539 kts | 208° |
| 2026-05-06 16:57 | 36.56757 | -13.31034 | 38010 ft | 540 kts | 208° |
| 2026-05-06 16:58 | 36.50249 | -13.35667 | 38005 ft | 538 kts | 210° |
| 2026-05-06 16:58 | 36.43724 | -13.40257 | 38007 ft | 539 kts | 210° |
| 2026-05-06 16:59 | 36.37242 | -13.44930 | 38008 ft | 539 kts | 210° |
| 2026-05-06 16:59 | 36.30726 | -13.49544 | 38009 ft | 539 kts | 210° |
| 2026-05-06 17:00 | 36.24222 | -13.54184 | 38010 ft | 539 kts | 210° |
| 2026-05-06 17:00 | 36.17706 | -13.58799 | 38010 ft | 540 kts | 210° |
| 2026-05-06 17:01 | 36.11189 | -13.63419 | 38011 ft | 540 kts | 210° |
| 2026-05-06 17:01 | 36.04665 | -13.68027 | 38008 ft | 540 kts | 210° |
| 2026-05-06 17:02 | 35.98141 | -13.72631 | 38010 ft | 540 kts | 210° |
| 2026-05-06 17:02 | 35.91615 | -13.77226 | 38010 ft | 540 kts | 210° |
| 2026-05-06 17:03 | 35.85091 | -13.81810 | 38011 ft | 540 kts | 210° |
| 2026-05-06 17:03 | 35.78559 | -13.86392 | 38011 ft | 540 kts | 210° |
| 2026-05-06 17:04 | 35.72032 | -13.90961 | 38012 ft | 540 kts | 210° |
| 2026-05-06 17:04 | 35.65532 | -13.95503 | 38010 ft | 540 kts | 210° |
| 2026-05-06 17:05 | 35.58947 | -14.00096 | 38011 ft | 541 kts | 210° |
| 2026-05-06 17:05 | 35.52401 | -14.04653 | 38012 ft | 541 kts | 210° |
| 2026-05-06 17:06 | 35.45901 | -14.09168 | 38009 ft | 541 kts | 210° |
| 2026-05-06 17:06 | 35.39351 | -14.13711 | 38010 ft | 541 kts | 210° |
| 2026-05-06 17:07 | 35.32806 | -14.18241 | 38010 ft | 540 kts | 210° |
| 2026-05-06 17:07 | 35.26256 | -14.22766 | 38010 ft | 540 kts | 209° |
| 2026-05-06 17:08 | 35.19715 | -14.27277 | 38010 ft | 540 kts | 209° |
| 2026-05-06 17:08 | 35.13161 | -14.31787 | 38010 ft | 540 kts | 209° |
| 2026-05-06 17:09 | 35.06616 | -14.36284 | 38011 ft | 540 kts | 209° |
| 2026-05-06 17:09 | 35.00063 | -14.40778 | 38011 ft | 540 kts | 209° |
| 2026-05-06 17:10 | 34.93516 | -14.45259 | 38011 ft | 540 kts | 209° |
| 2026-05-06 17:10 | 34.86958 | -14.49739 | 38012 ft | 540 kts | 209° |
| 2026-05-06 17:11 | 34.80406 | -14.54208 | 38009 ft | 540 kts | 209° |
| 2026-05-06 17:11 | 34.73849 | -14.58671 | 38009 ft | 540 kts | 209° |
| 2026-05-06 17:12 | 34.67291 | -14.63127 | 37993 ft | 540 kts | 209° |
| 2026-05-06 17:12 | 34.60729 | -14.67577 | 37993 ft | 540 kts | 209° |
| 2026-05-06 17:13 | 34.54164 | -14.72021 | 37995 ft | 540 kts | 209° |
| 2026-05-06 17:13 | 34.47597 | -14.76459 | 37993 ft | 541 kts | 209° |
| 2026-05-06 17:14 | 34.41028 | -14.80890 | 37992 ft | 541 kts | 209° |
| 2026-05-06 17:14 | 34.34495 | -14.85288 | 37994 ft | 541 kts | 209° |
| 2026-05-06 17:15 | 34.27875 | -14.89737 | 37993 ft | 541 kts | 209° |
| 2026-05-06 17:15 | 34.21204 | -14.93892 | 38008 ft | 540 kts | 206° |
| 2026-05-06 17:16 | 34.14493 | -14.97951 | 38008 ft | 540 kts | 206° |
| 2026-05-06 17:16 | 34.07748 | -15.01943 | 38008 ft | 540 kts | 206° |
| 2026-05-06 17:17 | 34.01064 | -15.05935 | 38008 ft | 540 kts | 206° |
| 2026-05-06 17:17 | 33.94327 | -15.09929 | 38008 ft | 540 kts | 206° |
| 2026-05-06 17:18 | 33.87587 | -15.13929 | 38008 ft | 540 kts | 206° |
| 2026-05-06 17:18 | 33.80842 | -15.17919 | 38009 ft | 540 kts | 206° |
| 2026-05-06 17:19 | 33.74096 | -15.21905 | 38009 ft | 540 kts | 206° |
| 2026-05-06 17:19 | 33.67344 | -15.25887 | 38009 ft | 540 kts | 206° |
| 2026-05-06 17:20 | 33.60594 | -15.29862 | 38010 ft | 540 kts | 206° |
| 2026-05-06 17:20 | 33.53850 | -15.33825 | 38010 ft | 540 kts | 206° |
| 2026-05-06 17:21 | 33.47093 | -15.37789 | 38010 ft | 540 kts | 206° |
| 2026-05-06 17:21 | 33.40340 | -15.41744 | 38010 ft | 541 kts | 206° |
| 2026-05-06 17:22 | 33.33580 | -15.45696 | 38010 ft | 540 kts | 206° |
| 2026-05-06 17:22 | 33.26822 | -15.49641 | 38011 ft | 541 kts | 206° |
| 2026-05-06 17:23 | 33.20066 | -15.53577 | 38011 ft | 541 kts | 206° |
| 2026-05-06 17:23 | 33.13305 | -15.57509 | 38011 ft | 540 kts | 206° |
| 2026-05-06 17:24 | 33.06543 | -15.61435 | 38011 ft | 541 kts | 206° |
| 2026-05-06 17:24 | 32.99824 | -15.65330 | 38011 ft | 541 kts | 206° |
| 2026-05-06 17:25 | 32.93053 | -15.69247 | 38012 ft | 541 kts | 206° |
| 2026-05-06 17:25 | 32.86283 | -15.73158 | 38009 ft | 541 kts | 206° |
| 2026-05-06 17:26 | 32.79505 | -15.77067 | 38009 ft | 541 kts | 206° |
| 2026-05-06 17:26 | 32.72726 | -15.80969 | 38010 ft | 541 kts | 206° |
| 2026-05-06 17:27 | 32.65948 | -15.84865 | 38010 ft | 541 kts | 206° |
| 2026-05-06 17:27 | 32.59169 | -15.88754 | 38011 ft | 542 kts | 206° |
| 2026-05-06 17:28 | 32.52381 | -15.92641 | 38011 ft | 541 kts | 206° |
| 2026-05-06 17:28 | 32.45596 | -15.96521 | 38011 ft | 541 kts | 206° |
| 2026-05-06 17:29 | 32.38810 | -16.00395 | 38011 ft | 541 kts | 206° |
| 2026-05-06 17:29 | 32.32026 | -16.04261 | 38011 ft | 541 kts | 206° |
| 2026-05-06 17:30 | 32.25236 | -16.08124 | 38011 ft | 541 kts | 206° |
| 2026-05-06 17:30 | 32.18446 | -16.11981 | 38011 ft | 541 kts | 206° |
| 2026-05-06 17:31 | 32.11661 | -16.15828 | 38011 ft | 541 kts | 206° |
| 2026-05-06 17:31 | 32.04872 | -16.19671 | 38010 ft | 541 kts | 206° |
| 2026-05-06 17:32 | 31.98133 | -16.23479 | 38010 ft | 541 kts | 206° |
| 2026-05-06 17:32 | 31.91306 | -16.27332 | 38010 ft | 540 kts | 206° |
| 2026-05-06 17:33 | 31.84572 | -16.31125 | 38009 ft | 540 kts | 206° |
| 2026-05-06 17:33 | 31.78891 | -16.34320 | 38009 ft | 540 kts | 206° |
| 2026-05-06 17:34 | 31.71014 | -16.38743 | 38009 ft | 540 kts | 205° |
| 2026-05-06 17:34 | 31.64234 | -16.42544 | 38009 ft | 540 kts | 205° |
| 2026-05-06 17:35 | 31.57441 | -16.46345 | 38009 ft | 540 kts | 205° |
| 2026-05-06 17:35 | 31.51754 | -16.49523 | 38009 ft | 540 kts | 205° |
| 2026-05-06 17:36 | 31.41437 | -16.54594 | 38018 ft | 539 kts | 192° |
| 2026-05-06 17:36 | 31.37726 | -16.55159 | 38024 ft | 539 kts | 181° |
| 2026-05-06 17:36 | 31.33977 | -16.54988 | 38019 ft | 538 kts | 175° |
| 2026-05-06 17:37 | 31.26517 | -16.54239 | 38009 ft | 538 kts | 175° |
| 2026-05-06 17:37 | 31.19051 | -16.53454 | 38012 ft | 539 kts | 175° |
| 2026-05-06 17:38 | 31.11577 | -16.52699 | 38010 ft | 539 kts | 175° |
| 2026-05-06 17:38 | 31.04103 | -16.51923 | 38010 ft | 539 kts | 175° |
| 2026-05-06 17:39 | 30.96623 | -16.51163 | 38012 ft | 540 kts | 175° |
| 2026-05-06 17:39 | 30.89137 | -16.50394 | 38010 ft | 540 kts | 175° |
| 2026-05-06 17:40 | 30.81648 | -16.49632 | 38012 ft | 540 kts | 175° |
| 2026-05-06 17:40 | 30.74160 | -16.48867 | 38009 ft | 540 kts | 175° |
| 2026-05-06 17:41 | 30.66675 | -16.48106 | 38009 ft | 540 kts | 175° |
| 2026-05-06 17:41 | 30.59190 | -16.47345 | 38009 ft | 540 kts | 175° |
| 2026-05-06 17:42 | 30.51698 | -16.46585 | 38010 ft | 540 kts | 175° |
| 2026-05-06 17:42 | 30.44209 | -16.45826 | 38010 ft | 540 kts | 175° |
| 2026-05-06 17:43 | 30.36719 | -16.45069 | 38010 ft | 540 kts | 175° |
| 2026-05-06 17:43 | 30.29222 | -16.44312 | 38011 ft | 541 kts | 175° |
| 2026-05-06 17:44 | 30.21724 | -16.43556 | 38011 ft | 541 kts | 175° |
| 2026-05-06 17:44 | 30.14234 | -16.42801 | 38011 ft | 540 kts | 175° |
| 2026-05-06 17:45 | 30.06736 | -16.42048 | 38011 ft | 541 kts | 175° |
| 2026-05-06 17:45 | 29.99238 | -16.41295 | 38012 ft | 541 kts | 175° |
| 2026-05-06 17:46 | 29.91790 | -16.40549 | 38012 ft | 541 kts | 175° |
| 2026-05-06 17:46 | 29.84293 | -16.39798 | 38009 ft | 541 kts | 175° |
| 2026-05-06 17:47 | 29.76797 | -16.39049 | 38010 ft | 541 kts | 175° |
| 2026-05-06 17:47 | 29.69293 | -16.38301 | 38010 ft | 541 kts | 175° |
| 2026-05-06 17:48 | 29.61818 | -16.38512 | 38023 ft | 539 kts | 192° |
| 2026-05-06 17:48 | 29.54880 | -16.41638 | 38025 ft | 537 kts | 212° |
| 2026-05-06 17:49 | 29.48963 | -16.46869 | 38008 ft | 537 kts | 219° |
| 2026-05-06 17:49 | 29.43207 | -16.52331 | 38012 ft | 537 kts | 219° |
| 2026-05-06 17:50 | 29.37424 | -16.57755 | 38012 ft | 537 kts | 219° |
| 2026-05-06 17:50 | 29.31645 | -16.63192 | 38010 ft | 538 kts | 219° |
| 2026-05-06 17:51 | 29.25852 | -16.68623 | 38010 ft | 538 kts | 219° |
| 2026-05-06 17:51 | 29.20058 | -16.74051 | 38012 ft | 538 kts | 219° |
| 2026-05-06 17:52 | 29.14257 | -16.79476 | 38010 ft | 539 kts | 219° |
| 2026-05-06 17:52 | 29.08485 | -16.84866 | 38011 ft | 539 kts | 219° |
| 2026-05-06 17:53 | 29.02676 | -16.90283 | 38009 ft | 539 kts | 219° |
| 2026-05-06 17:53 | 28.96860 | -16.95697 | 38010 ft | 539 kts | 219° |
| 2026-05-06 17:54 | 28.91043 | -17.01106 | 38010 ft | 539 kts | 219° |
| 2026-05-06 17:54 | 28.85229 | -17.06502 | 38010 ft | 539 kts | 219° |
| 2026-05-06 17:55 | 28.79408 | -17.11899 | 38010 ft | 539 kts | 219° |
| 2026-05-06 17:55 | 28.73586 | -17.17286 | 38010 ft | 539 kts | 219° |
| 2026-05-06 17:56 | 28.67765 | -17.22666 | 38010 ft | 539 kts | 219° |
| 2026-05-06 17:56 | 28.61942 | -17.28040 | 38010 ft | 539 kts | 219° |
| 2026-05-06 17:57 | 28.56116 | -17.33402 | 38010 ft | 538 kts | 218° |
| 2026-05-06 17:57 | 28.52976 | -17.35700 | 38023 ft | 538 kts | 206° |
| 2026-05-06 17:57 | 28.49499 | -17.37243 | 38027 ft | 537 kts | 194° |
| 2026-05-06 17:58 | 28.45818 | -17.37973 | 38029 ft | 537 kts | 183° |
| 2026-05-06 17:58 | 28.42092 | -17.37860 | 38031 ft | 537 kts | 172° |
| 2026-05-06 17:58 | 28.38459 | -17.36911 | 38032 ft | 537 kts | 160° |
| 2026-05-06 17:58 | 28.35061 | -17.35163 | 38033 ft | 537 kts | 149° |
| 2026-05-06 17:59 | 28.32038 | -17.32689 | 38034 ft | 537 kts | 137° |
| 2026-05-06 17:59 | 28.29504 | -17.29582 | 38034 ft | 537 kts | 126° |
| 2026-05-06 17:59 | 28.27560 | -17.25960 | 38035 ft | 537 kts | 115° |
| 2026-05-06 17:59 | 28.26261 | -17.22012 | 38024 ft | 537 kts | 106° |
| 2026-05-06 18:00 | 28.24429 | -17.13798 | 38010 ft | 537 kts | 108° |
| 2026-05-06 18:00 | 28.21857 | -17.05910 | 38016 ft | 536 kts | 114° |
| 2026-05-06 18:01 | 28.18020 | -16.98726 | 38028 ft | 534 kts | 133° |
| 2026-05-06 18:01 | 28.15273 | -16.95901 | 38031 ft | 533 kts | 145° |
| 2026-05-06 18:01 | 28.12094 | -16.93761 | 38032 ft | 533 kts | 156° |
| 2026-05-06 18:02 | 28.04978 | -16.91607 | 38033 ft | 532 kts | 178° |
| 2026-05-06 18:02 | 28.01235 | -16.91758 | 38034 ft | 531 kts | 189° |
| 2026-05-06 18:02 | 27.97706 | -16.92724 | 38035 ft | 531 kts | 200° |
| 2026-05-06 18:03 | 27.94368 | -16.94491 | 38035 ft | 530 kts | 212° |
| 2026-05-06 18:03 | 27.91415 | -16.96976 | 38036 ft | 530 kts | 224° |
| 2026-05-06 18:03 | 27.88962 | -17.00086 | 38036 ft | 530 kts | 235° |
| 2026-05-06 18:03 | 27.87117 | -17.03678 | 38036 ft | 530 kts | 246° |
| 2026-05-06 18:04 | 27.85949 | -17.07619 | 38036 ft | 530 kts | 258° |
| 2026-05-06 18:04 | 27.85316 | -17.11719 | 38005 ft | 530 kts | 256° |
| 2026-05-06 18:04 | 27.84155 | -17.15653 | 38033 ft | 529 kts | 244° |
| 2026-05-06 18:04 | 27.82317 | -17.19241 | 38036 ft | 528 kts | 233° |
| 2026-05-06 18:05 | 27.79878 | -17.22333 | 38036 ft | 528 kts | 221° |
| 2026-05-06 18:05 | 27.76939 | -17.24802 | 38036 ft | 528 kts | 210° |
| 2026-05-06 18:05 | 27.73617 | -17.26551 | 38036 ft | 528 kts | 198° |
| 2026-05-06 18:05 | 27.70050 | -17.27508 | 38037 ft | 528 kts | 186° |
| 2026-05-06 18:06 | 27.66382 | -17.27634 | 38037 ft | 529 kts | 175° |
| 2026-05-06 18:06 | 27.62766 | -17.26924 | 38037 ft | 529 kts | 163° |
| 2026-05-06 18:06 | 27.59343 | -17.25405 | 38037 ft | 529 kts | 152° |
| 2026-05-06 18:06 | 27.56264 | -17.23142 | 38037 ft | 530 kts | 140° |
| 2026-05-06 18:07 | 27.53643 | -17.20219 | 38037 ft | 531 kts | 128° |
| 2026-05-06 18:07 | 27.51602 | -17.16772 | 38037 ft | 531 kts | 117° |
| 2026-05-06 18:07 | 27.50215 | -17.12933 | 38037 ft | 531 kts | 105° |
| 2026-05-06 18:07 | 27.49537 | -17.08852 | 38037 ft | 532 kts | 94° |
| 2026-05-06 18:08 | 27.49599 | -17.04697 | 38037 ft | 532 kts | 82° |
| 2026-05-06 18:08 | 27.50403 | -17.00626 | 38037 ft | 532 kts | 70° |
| 2026-05-06 18:08 | 27.51916 | -16.96818 | 38037 ft | 532 kts | 59° |
| 2026-05-06 18:08 | 27.54067 | -16.93440 | 38037 ft | 533 kts | 47° |
| 2026-05-06 18:09 | 27.56790 | -16.90601 | 38037 ft | 533 kts | 36° |
| 2026-05-06 18:09 | 27.59926 | -16.88368 | 38023 ft | 533 kts | 28° |
| 2026-05-06 18:09 | 27.66628 | -16.84789 | 38011 ft | 534 kts | 23° |
| 2026-05-06 18:10 | 27.73488 | -16.81554 | 38013 ft | 535 kts | 22° |
| 2026-05-06 18:10 | 27.80430 | -16.78519 | 38013 ft | 535 kts | 19° |
| 2026-05-06 18:11 | 27.86176 | -16.75936 | 38009 ft | 535 kts | 25° |
| 2026-05-06 18:11 | 27.93713 | -16.71133 | 38018 ft | 534 kts | 36° |
| 2026-05-06 18:12 | 27.99278 | -16.65623 | 38010 ft | 532 kts | 47° |
| 2026-05-06 18:12 | 28.03822 | -16.59060 | 38013 ft | 530 kts | 58° |
| 2026-05-06 18:13 | 28.05523 | -16.55373 | 38026 ft | 529 kts | 69° |
| 2026-05-06 18:13 | 28.06532 | -16.51401 | 38028 ft | 527 kts | 81° |
| 2026-05-06 18:13 | 28.06812 | -16.47270 | 38031 ft | 526 kts | 93° |
| 2026-05-06 18:13 | 28.06348 | -16.43170 | 38032 ft | 525 kts | 104° |
| 2026-05-06 18:14 | 28.05167 | -16.39286 | 38033 ft | 523 kts | 116° |
| 2026-05-06 18:14 | 28.03303 | -16.35737 | 38034 ft | 522 kts | 128° |
| 2026-05-06 18:14 | 28.00853 | -16.32714 | 38035 ft | 521 kts | 140° |
| 2026-05-06 18:14 | 27.97918 | -16.30328 | 38035 ft | 520 kts | 152° |
| 2026-05-06 18:15 | 27.94619 | -16.28675 | 38036 ft | 519 kts | 163° |
| 2026-05-06 18:15 | 27.91104 | -16.27825 | 38036 ft | 518 kts | 175° |
| 2026-05-06 18:15 | 27.87506 | -16.27807 | 38036 ft | 517 kts | 187° |
| 2026-05-06 18:15 | 27.83994 | -16.28623 | 38036 ft | 516 kts | 199° |
| 2026-05-06 18:16 | 27.80704 | -16.30237 | 38037 ft | 516 kts | 211° |
| 2026-05-06 18:16 | 27.77789 | -16.32573 | 38037 ft | 515 kts | 223° |
| 2026-05-06 18:16 | 27.75360 | -16.35538 | 38037 ft | 515 kts | 234° |
| 2026-05-06 18:16 | 27.73525 | -16.39005 | 38037 ft | 515 kts | 246° |
| 2026-05-06 18:17 | 27.72364 | -16.42824 | 38037 ft | 515 kts | 258° |
| 2026-05-06 18:17 | 27.71925 | -16.46828 | 38037 ft | 515 kts | 270° |
| 2026-05-06 18:17 | 27.73134 | -16.54790 | 37610 ft | 524 kts | 292° |
| 2026-05-06 18:18 | 27.74788 | -16.58475 | 37257 ft | 531 kts | 303° |
| 2026-05-06 18:18 | 27.77090 | -16.61753 | 36903 ft | 537 kts | 315° |
| 2026-05-06 18:18 | 27.79954 | -16.64484 | 36547 ft | 542 kts | 326° |
| 2026-05-06 18:18 | 27.83258 | -16.66548 | 36188 ft | 546 kts | 337° |
| 2026-05-06 18:19 | 27.86882 | -16.67880 | 35821 ft | 549 kts | 347° |
| 2026-05-06 18:19 | 27.90655 | -16.68632 | 35427 ft | 553 kts | 355° |
| 2026-05-06 18:19 | 27.94517 | -16.68734 | 34843 ft | 559 kts | 1° |
| 2026-05-06 18:19 | 27.98407 | -16.68408 | 33991 ft | 561 kts | 7° |
| 2026-05-06 18:20 | 28.02192 | -16.67681 | 33224 ft | 557 kts | 12° |
| 2026-05-06 18:20 | 28.05893 | -16.66523 | 33013 ft | 548 kts | 18° |
| 2026-05-06 18:20 | 28.12795 | -16.63052 | 33010 ft | 540 kts | 29° |
| 2026-05-06 18:21 | 28.19821 | -16.60164 | 32338 ft | 546 kts | 9° |
| 2026-05-06 18:21 | 28.23610 | -16.59869 | 31745 ft | 547 kts | 358° |
| 2026-05-06 18:21 | 28.27340 | -16.60376 | 31143 ft | 532 kts | 347° |
| 2026-05-06 18:22 | 28.30822 | -16.61618 | 30261 ft | 522 kts | 336° |
| 2026-05-06 18:22 | 28.33986 | -16.63572 | 29284 ft | 515 kts | 325° |
| 2026-05-06 18:22 | 28.36708 | -16.66158 | 28308 ft | 508 kts | 314° |
| 2026-05-06 18:22 | 28.38890 | -16.69263 | 27332 ft | 500 kts | 302° |
| 2026-05-06 18:23 | 28.40455 | -16.72760 | 26352 ft | 493 kts | 290° |
| 2026-05-06 18:23 | 28.41344 | -16.76480 | 25375 ft | 486 kts | 279° |
| 2026-05-06 18:23 | 28.41673 | -16.80271 | 24392 ft | 479 kts | 273° |
| 2026-05-06 18:23 | 28.41687 | -16.84029 | 23403 ft | 472 kts | 267° |
| 2026-05-06 18:24 | 28.41335 | -16.87703 | 22416 ft | 466 kts | 260° |
| 2026-05-06 18:24 | 28.40590 | -16.91255 | 21426 ft | 459 kts | 253° |
| 2026-05-06 18:24 | 28.39451 | -16.94614 | 20433 ft | 453 kts | 245° |
| 2026-05-06 18:24 | 28.37940 | -16.97714 | 19442 ft | 446 kts | 237° |
| 2026-05-06 18:25 | 28.36083 | -17.00509 | 18446 ft | 440 kts | 229° |
| 2026-05-06 18:25 | 28.33933 | -17.02938 | 17452 ft | 434 kts | 221° |
| 2026-05-06 18:25 | 28.31536 | -17.04971 | 16457 ft | 428 kts | 213° |
| 2026-05-06 18:25 | 28.28947 | -17.06579 | 15461 ft | 422 kts | 205° |
| 2026-05-06 18:26 | 28.27154 | -17.07401 | 14802 ft | 418 kts | 200° |
| 2026-05-06 18:26 | 28.24378 | -17.08270 | 13805 ft | 412 kts | 192° |
| 2026-05-06 18:26 | 28.21557 | -17.08694 | 12808 ft | 406 kts | 184° |
| 2026-05-06 18:26 | 28.18754 | -17.08681 | 11810 ft | 401 kts | 176° |
| 2026-05-06 18:27 | 28.16008 | -17.08322 | 10815 ft | 394 kts | 172° |
| 2026-05-06 18:27 | 28.13300 | -17.08079 | 9815 ft | 387 kts | 178° |
| 2026-05-06 18:27 | 28.10634 | -17.07876 | 8819 ft | 382 kts | 173° |
| 2026-05-06 18:27 | 28.08101 | -17.07368 | 7800 ft | 354 kts | 168° |
| 2026-05-06 18:28 | 28.05809 | -17.06661 | 6782 ft | 330 kts | 161° |
| 2026-05-06 18:28 | 28.03772 | -17.05638 | 5765 ft | 313 kts | 152° |
| 2026-05-06 18:28 | 28.02145 | -17.04099 | 4739 ft | 305 kts | 124° |